Startpagina
METAR-TAF:

METAR-TAF

Vliegvelden :

Paso de los Libres, Argentinië

breedte: 29-41S, lengte: 057-09W, hoogte: 69 m

Actueel weer

Dit bericht is 40 minuten geleden gemaakt, om 13:00 UTC
Wind 4 kt uit het noordoosten
Temperatuur 28°C
Vochtigheid 79%
Druk 1009 hPa
Zicht 10 km of meer
Gebroken wolken op 1800 ft

METAR: SARL 251300Z 05004KT 9999 BKN018 28/24 Q1009

Tijdstip: 10:40 (13:40 UTC)


TAF: ontbreekt

Waarnemingen en weersverwachtingen van meer dan 4000 vliegvelden (METAR en TAF).

De beschikbare stations zijn de gele en rode punten op de kaart.

Ga met uw muis naar het station om de naam te zien.

Klik dan om waarnemingen en weersverwachtingen te zien.

kaart wijzigen: klik op de groene knoppen met een zwart kruis om in te zoomen, op de groene knop met een streepje om uit te zoomen of op de groene pijlen voor aangrenzende kaarten.


METAR-TAF: